Terminal Aerodrome Forecast
Issued by NWS St Louis, MO

Home | Current Version | Previous Version | Graphics & Text | Print | Product List | Glossary On
Versions: 1 2 3 4 5 6 7 8 9 10 11 12 13 14 15 16 17 18 19 20 21 22 23 24 25 26 27
000
FTUS43 KLSX 281500 AAA
TAFSTL
TAF AMD
KSTL 281505Z 2815/2918 13009KT P6SM SCT018 BKN250
      TEMPO 2815/2817 BKN018
     FM281700 14009KT P6SM SCT035 BKN250
     FM282000 16008KT P6SM BKN040
     FM290100 15007KT P6SM SCT050 BKN120=

USA.gov is the U.S. government's official web portal to all federal, state and local government web resources and services.